sensor_id;sensor_type;location;lat;lon;timestamp;P1;durP1;ratioP1;P2;durP2;ratioP2
24261;SDS011;12385;51.412;5.540;2022-07-29T00:00:00;9.25;;;1.30;;
24261;SDS011;12385;51.412;5.540;2022-07-29T00:02:26;5.18;;;1.00;;
24261;SDS011;12385;51.412;5.540;2022-07-29T00:04:52;3.72;;;1.20;;
24261;SDS011;12385;51.412;5.540;2022-07-29T00:07:18;7.10;;;1.10;;
24261;SDS011;12385;51.412;5.540;2022-07-29T00:09:43;6.28;;;1.40;;
24261;SDS011;12385;51.412;5.540;2022-07-29T00:12:09;3.42;;;1.30;;
24261;SDS011;12385;51.412;5.540;2022-07-29T00:14:35;9.07;;;1.42;;
24261;SDS011;12385;51.412;5.540;2022-07-29T00:17:00;5.22;;;1.33;;
24261;SDS011;12385;51.412;5.540;2022-07-29T00:19:26;6.55;;;1.30;;
24261;SDS011;12385;51.412;5.540;2022-07-29T00:21:52;4.50;;;1.20;;
24261;SDS011;12385;51.412;5.540;2022-07-29T00:24:17;8.35;;;1.50;;
24261;SDS011;12385;51.412;5.540;2022-07-29T00:26:43;3.70;;;1.20;;
24261;SDS011;12385;51.412;5.540;2022-07-29T00:29:09;6.40;;;1.52;;
24261;SDS011;12385;51.412;5.540;2022-07-29T00:31:34;5.38;;;1.40;;
24261;SDS011;12385;51.412;5.540;2022-07-29T00:34:00;5.60;;;1.60;;
24261;SDS011;12385;51.412;5.540;2022-07-29T00:36:25;7.43;;;1.40;;
24261;SDS011;12385;51.412;5.540;2022-07-29T00:38:51;6.88;;;1.52;;
24261;SDS011;12385;51.412;5.540;2022-07-29T00:41:17;3.83;;;1.30;;
24261;SDS011;12385;51.412;5.540;2022-07-29T00:43:43;4.25;;;1.58;;
24261;SDS011;12385;51.412;5.540;2022-07-29T00:46:10;9.07;;;1.63;;
24261;SDS011;12385;51.412;5.540;2022-07-29T00:48:35;7.88;;;2.15;;
24261;SDS011;12385;51.412;5.540;2022-07-29T00:51:02;21.05;;;2.88;;
24261;SDS011;12385;51.412;5.540;2022-07-29T00:53:29;13.57;;;3.20;;
24261;SDS011;12385;51.412;5.540;2022-07-29T00:55:56;12.98;;;3.17;;
24261;SDS011;12385;51.412;5.540;2022-07-29T00:58:22;15.95;;;3.33;;
24261;SDS011;12385;51.412;5.540;2022-07-29T01:00:48;10.10;;;3.22;;
24261;SDS011;12385;51.412;5.540;2022-07-29T01:03:14;10.43;;;3.40;;
24261;SDS011;12385;51.412;5.540;2022-07-29T01:05:41;12.25;;;3.58;;
24261;SDS011;12385;51.412;5.540;2022-07-29T01:08:08;10.00;;;3.22;;
24261;SDS011;12385;51.412;5.540;2022-07-29T01:10:36;9.50;;;3.13;;
24261;SDS011;12385;51.412;5.540;2022-07-29T01:13:02;7.50;;;2.97;;
24261;SDS011;12385;51.412;5.540;2022-07-29T01:15:29;9.38;;;3.17;;
24261;SDS011;12385;51.412;5.540;2022-07-29T01:17:59;10.32;;;3.28;;
24261;SDS011;12385;51.412;5.540;2022-07-29T01:32:11;10.20;;;3.05;;
24261;SDS011;12385;51.412;5.540;2022-07-29T01:37:23;4.72;;;2.92;;
24261;SDS011;12385;51.412;5.540;2022-07-29T01:39:55;9.57;;;3.45;;
24261;SDS011;12385;51.412;5.540;2022-07-29T01:51:07;8.38;;;2.70;;
24261;SDS011;12385;51.412;5.540;2022-07-29T01:53:45;8.60;;;2.90;;
24261;SDS011;12385;51.412;5.540;2022-07-29T01:56:16;9.75;;;2.72;;
24261;SDS011;12385;51.412;5.540;2022-07-29T01:58:44;7.95;;;2.83;;
24261;SDS011;12385;51.412;5.540;2022-07-29T02:01:12;10.90;;;3.03;;
24261;SDS011;12385;51.412;5.540;2022-07-29T02:03:39;8.70;;;3.20;;
24261;SDS011;12385;51.412;5.540;2022-07-29T02:06:08;10.30;;;3.30;;
24261;SDS011;12385;51.412;5.540;2022-07-29T02:08:36;7.55;;;3.40;;
24261;SDS011;12385;51.412;5.540;2022-07-29T02:11:04;7.43;;;3.30;;
24261;SDS011;12385;51.412;5.540;2022-07-29T02:13:31;5.70;;;3.20;;
24261;SDS011;12385;51.412;5.540;2022-07-29T02:16:00;8.90;;;3.22;;
24261;SDS011;12385;51.412;5.540;2022-07-29T02:18:29;6.32;;;3.22;;
24261;SDS011;12385;51.412;5.540;2022-07-29T02:20:56;8.70;;;3.60;;
24261;SDS011;12385;51.412;5.540;2022-07-29T02:23:24;7.25;;;3.30;;
24261;SDS011;12385;51.412;5.540;2022-07-29T02:25:51;6.88;;;3.80;;
24261;SDS011;12385;51.412;5.540;2022-07-29T02:28:19;12.25;;;3.63;;
24261;SDS011;12385;51.412;5.540;2022-07-29T02:30:46;9.40;;;3.78;;
24261;SDS011;12385;51.412;5.540;2022-07-29T02:33:14;7.32;;;3.65;;
24261;SDS011;12385;51.412;5.540;2022-07-29T02:35:42;8.18;;;3.28;;
24261;SDS011;12385;51.412;5.540;2022-07-29T02:38:10;7.57;;;3.70;;
24261;SDS011;12385;51.412;5.540;2022-07-29T02:40:58;9.90;;;4.20;;
24261;SDS011;12385;51.412;5.540;2022-07-29T02:43:28;9.57;;;4.10;;
24261;SDS011;12385;51.412;5.540;2022-07-29T02:45:55;9.45;;;3.70;;
24261;SDS011;12385;51.412;5.540;2022-07-29T02:48:26;7.97;;;3.85;;
24261;SDS011;12385;51.412;5.540;2022-07-29T02:51:01;7.28;;;3.50;;
24261;SDS011;12385;51.412;5.540;2022-07-29T02:53:34;8.32;;;3.58;;
24261;SDS011;12385;51.412;5.540;2022-07-29T02:56:04;9.00;;;3.90;;
24261;SDS011;12385;51.412;5.540;2022-07-29T02:58:34;9.70;;;3.95;;
24261;SDS011;12385;51.412;5.540;2022-07-29T03:01:22;6.90;;;4.35;;
24261;SDS011;12385;51.412;5.540;2022-07-29T03:03:50;11.23;;;3.60;;
24261;SDS011;12385;51.412;5.540;2022-07-29T03:06:19;9.43;;;3.72;;
24261;SDS011;12385;51.412;5.540;2022-07-29T03:08:47;8.52;;;3.75;;
24261;SDS011;12385;51.412;5.540;2022-07-29T03:11:13;8.13;;;3.92;;
24261;SDS011;12385;51.412;5.540;2022-07-29T03:13:39;9.98;;;4.40;;
24261;SDS011;12385;51.412;5.540;2022-07-29T03:16:06;9.68;;;4.15;;
24261;SDS011;12385;51.412;5.540;2022-07-29T03:18:33;5.93;;;4.20;;
24261;SDS011;12385;51.412;5.540;2022-07-29T03:20:59;9.27;;;3.50;;
24261;SDS011;12385;51.412;5.540;2022-07-29T03:23:25;8.18;;;4.13;;
24261;SDS011;12385;51.412;5.540;2022-07-29T03:25:53;7.80;;;3.80;;
24261;SDS011;12385;51.412;5.540;2022-07-29T03:28:19;11.38;;;4.10;;
24261;SDS011;12385;51.412;5.540;2022-07-29T03:30:45;10.02;;;4.20;;
24261;SDS011;12385;51.412;5.540;2022-07-29T03:33:10;7.63;;;3.97;;
24261;SDS011;12385;51.412;5.540;2022-07-29T03:35:36;5.95;;;3.47;;
24261;SDS011;12385;51.412;5.540;2022-07-29T03:38:02;7.03;;;3.72;;
24261;SDS011;12385;51.412;5.540;2022-07-29T03:40:30;6.53;;;3.60;;
24261;SDS011;12385;51.412;5.540;2022-07-29T03:42:59;8.05;;;4.30;;
24261;SDS011;12385;51.412;5.540;2022-07-29T03:45:26;7.03;;;3.90;;
24261;SDS011;12385;51.412;5.540;2022-07-29T03:47:57;7.85;;;4.10;;
24261;SDS011;12385;51.412;5.540;2022-07-29T03:50:27;10.15;;;4.55;;
24261;SDS011;12385;51.412;5.540;2022-07-29T03:52:54;8.75;;;4.72;;
24261;SDS011;12385;51.412;5.540;2022-07-29T03:55:20;11.60;;;4.72;;
24261;SDS011;12385;51.412;5.540;2022-07-29T03:57:46;8.80;;;4.85;;
24261;SDS011;12385;51.412;5.540;2022-07-29T04:00:14;7.47;;;4.40;;
24261;SDS011;12385;51.412;5.540;2022-07-29T04:02:41;9.73;;;5.10;;
24261;SDS011;12385;51.412;5.540;2022-07-29T04:05:12;9.32;;;5.10;;
24261;SDS011;12385;51.412;5.540;2022-07-29T04:07:38;8.52;;;4.90;;
24261;SDS011;12385;51.412;5.540;2022-07-29T04:10:04;10.15;;;5.25;;
24261;SDS011;12385;51.412;5.540;2022-07-29T04:12:30;10.73;;;4.93;;
24261;SDS011;12385;51.412;5.540;2022-07-29T04:14:55;9.02;;;4.97;;
24261;SDS011;12385;51.412;5.540;2022-07-29T04:17:21;9.75;;;5.05;;
24261;SDS011;12385;51.412;5.540;2022-07-29T04:19:46;9.23;;;4.97;;
24261;SDS011;12385;51.412;5.540;2022-07-29T04:22:12;7.78;;;4.90;;
24261;SDS011;12385;51.412;5.540;2022-07-29T04:24:37;9.63;;;4.72;;
24261;SDS011;12385;51.412;5.540;2022-07-29T04:27:03;10.45;;;5.78;;
24261;SDS011;12385;51.412;5.540;2022-07-29T04:29:28;12.05;;;5.68;;
24261;SDS011;12385;51.412;5.540;2022-07-29T04:31:54;9.98;;;6.03;;
24261;SDS011;12385;51.412;5.540;2022-07-29T04:34:20;9.63;;;6.07;;
24261;SDS011;12385;51.412;5.540;2022-07-29T04:36:45;12.73;;;6.30;;
24261;SDS011;12385;51.412;5.540;2022-07-29T04:39:11;8.35;;;5.38;;
24261;SDS011;12385;51.412;5.540;2022-07-29T04:41:37;9.02;;;5.95;;
24261;SDS011;12385;51.412;5.540;2022-07-29T04:44:02;10.65;;;5.43;;
24261;SDS011;12385;51.412;5.540;2022-07-29T04:46:30;10.00;;;5.57;;
24261;SDS011;12385;51.412;5.540;2022-07-29T04:48:56;11.35;;;5.60;;
24261;SDS011;12385;51.412;5.540;2022-07-29T04:51:21;7.57;;;5.68;;
24261;SDS011;12385;51.412;5.540;2022-07-29T04:53:47;11.57;;;5.53;;
24261;SDS011;12385;51.412;5.540;2022-07-29T04:56:13;11.40;;;6.05;;
24261;SDS011;12385;51.412;5.540;2022-07-29T04:58:38;9.73;;;6.22;;
24261;SDS011;12385;51.412;5.540;2022-07-29T05:01:04;8.98;;;5.93;;
24261;SDS011;12385;51.412;5.540;2022-07-29T05:03:30;10.02;;;5.68;;
24261;SDS011;12385;51.412;5.540;2022-07-29T05:05:55;9.85;;;5.60;;
24261;SDS011;12385;51.412;5.540;2022-07-29T05:08:21;8.75;;;5.68;;
24261;SDS011;12385;51.412;5.540;2022-07-29T05:10:46;9.10;;;5.32;;
24261;SDS011;12385;51.412;5.540;2022-07-29T05:13:12;7.28;;;5.60;;
24261;SDS011;12385;51.412;5.540;2022-07-29T05:15:38;10.25;;;6.00;;
24261;SDS011;12385;51.412;5.540;2022-07-29T05:18:05;9.35;;;6.05;;
24261;SDS011;12385;51.412;5.540;2022-07-29T05:20:30;9.95;;;6.05;;
24261;SDS011;12385;51.412;5.540;2022-07-29T05:22:57;11.70;;;6.32;;
24261;SDS011;12385;51.412;5.540;2022-07-29T05:25:24;11.00;;;6.13;;
24261;SDS011;12385;51.412;5.540;2022-07-29T05:27:50;11.70;;;6.57;;
24261;SDS011;12385;51.412;5.540;2022-07-29T05:30:16;9.10;;;6.18;;
24261;SDS011;12385;51.412;5.540;2022-07-29T05:32:42;9.73;;;6.68;;
24261;SDS011;12385;51.412;5.540;2022-07-29T05:35:08;12.32;;;6.75;;
24261;SDS011;12385;51.412;5.540;2022-07-29T05:37:34;10.77;;;6.80;;
24261;SDS011;12385;51.412;5.540;2022-07-29T05:40:00;12.98;;;6.70;;
24261;SDS011;12385;51.412;5.540;2022-07-29T05:42:26;13.52;;;6.82;;
24261;SDS011;12385;51.412;5.540;2022-07-29T05:44:52;10.18;;;6.50;;
24261;SDS011;12385;51.412;5.540;2022-07-29T05:47:18;12.43;;;6.80;;
24261;SDS011;12385;51.412;5.540;2022-07-29T05:49:44;9.38;;;7.97;;
24261;SDS011;12385;51.412;5.540;2022-07-29T05:52:09;10.13;;;7.10;;
24261;SDS011;12385;51.412;5.540;2022-07-29T05:54:35;12.07;;;6.82;;
24261;SDS011;12385;51.412;5.540;2022-07-29T05:57:02;11.65;;;6.82;;
24261;SDS011;12385;51.412;5.540;2022-07-29T05:59:28;10.15;;;6.60;;
24261;SDS011;12385;51.412;5.540;2022-07-29T06:01:54;10.00;;;6.63;;
24261;SDS011;12385;51.412;5.540;2022-07-29T06:04:21;11.23;;;7.15;;
24261;SDS011;12385;51.412;5.540;2022-07-29T06:06:47;11.80;;;6.72;;
24261;SDS011;12385;51.412;5.540;2022-07-29T06:09:12;12.38;;;7.28;;
24261;SDS011;12385;51.412;5.540;2022-07-29T06:11:38;11.77;;;7.10;;
24261;SDS011;12385;51.412;5.540;2022-07-29T06:14:04;11.52;;;6.75;;
24261;SDS011;12385;51.412;5.540;2022-07-29T06:16:30;9.82;;;6.88;;
24261;SDS011;12385;51.412;5.540;2022-07-29T06:18:55;9.18;;;6.43;;
24261;SDS011;12385;51.412;5.540;2022-07-29T06:21:21;10.93;;;7.28;;
24261;SDS011;12385;51.412;5.540;2022-07-29T06:23:46;9.77;;;6.97;;
24261;SDS011;12385;51.412;5.540;2022-07-29T06:26:12;9.75;;;7.15;;
24261;SDS011;12385;51.412;5.540;2022-07-29T06:28:38;12.70;;;7.50;;
24261;SDS011;12385;51.412;5.540;2022-07-29T06:31:04;10.50;;;6.47;;
24261;SDS011;12385;51.412;5.540;2022-07-29T06:33:30;12.10;;;6.95;;
24261;SDS011;12385;51.412;5.540;2022-07-29T06:35:56;10.55;;;6.72;;
24261;SDS011;12385;51.412;5.540;2022-07-29T06:38:21;9.70;;;6.95;;
24261;SDS011;12385;51.412;5.540;2022-07-29T06:40:47;9.02;;;7.13;;
24261;SDS011;12385;51.412;5.540;2022-07-29T06:43:26;9.93;;;7.20;;
24261;SDS011;12385;51.412;5.540;2022-07-29T06:45:59;11.52;;;6.75;;
24261;SDS011;12385;51.412;5.540;2022-07-29T06:48:26;11.05;;;6.40;;
24261;SDS011;12385;51.412;5.540;2022-07-29T06:50:52;8.85;;;6.95;;
24261;SDS011;12385;51.412;5.540;2022-07-29T06:53:17;9.88;;;6.68;;
24261;SDS011;12385;51.412;5.540;2022-07-29T06:55:43;13.20;;;6.63;;
24261;SDS011;12385;51.412;5.540;2022-07-29T06:58:08;12.35;;;6.85;;
24261;SDS011;12385;51.412;5.540;2022-07-29T07:00:35;10.98;;;6.68;;
24261;SDS011;12385;51.412;5.540;2022-07-29T07:03:00;8.73;;;6.55;;
24261;SDS011;12385;51.412;5.540;2022-07-29T07:05:26;10.38;;;6.70;;
24261;SDS011;12385;51.412;5.540;2022-07-29T07:07:52;10.10;;;7.32;;
24261;SDS011;12385;51.412;5.540;2022-07-29T07:10:17;12.40;;;6.88;;
24261;SDS011;12385;51.412;5.540;2022-07-29T07:12:43;7.70;;;6.55;;
24261;SDS011;12385;51.412;5.540;2022-07-29T07:15:09;12.23;;;6.78;;
24261;SDS011;12385;51.412;5.540;2022-07-29T07:17:34;12.05;;;6.78;;
24261;SDS011;12385;51.412;5.540;2022-07-29T07:20:00;10.45;;;7.20;;
24261;SDS011;12385;51.412;5.540;2022-07-29T07:22:26;11.60;;;7.25;;
24261;SDS011;12385;51.412;5.540;2022-07-29T07:24:51;10.77;;;6.85;;
24261;SDS011;12385;51.412;5.540;2022-07-29T07:27:17;10.70;;;7.28;;
24261;SDS011;12385;51.412;5.540;2022-07-29T07:29:42;10.10;;;6.97;;
24261;SDS011;12385;51.412;5.540;2022-07-29T07:32:08;8.98;;;6.75;;
24261;SDS011;12385;51.412;5.540;2022-07-29T07:34:34;9.57;;;7.00;;
24261;SDS011;12385;51.412;5.540;2022-07-29T07:36:59;9.35;;;6.07;;
24261;SDS011;12385;51.412;5.540;2022-07-29T07:39:25;10.15;;;6.30;;
24261;SDS011;12385;51.412;5.540;2022-07-29T07:41:51;11.85;;;6.30;;
24261;SDS011;12385;51.412;5.540;2022-07-29T07:44:17;10.30;;;6.32;;
24261;SDS011;12385;51.412;5.540;2022-07-29T07:46:42;10.13;;;6.18;;
24261;SDS011;12385;51.412;5.540;2022-07-29T07:49:09;11.32;;;6.32;;
24261;SDS011;12385;51.412;5.540;2022-07-29T07:51:35;8.45;;;5.63;;
24261;SDS011;12385;51.412;5.540;2022-07-29T07:54:01;10.05;;;5.68;;
24261;SDS011;12385;51.412;5.540;2022-07-29T07:56:27;12.68;;;5.72;;
24261;SDS011;12385;51.412;5.540;2022-07-29T07:58:52;14.45;;;5.93;;
24261;SDS011;12385;51.412;5.540;2022-07-29T08:01:18;9.98;;;5.85;;
24261;SDS011;12385;51.412;5.540;2022-07-29T08:03:47;9.80;;;5.65;;
24261;SDS011;12385;51.412;5.540;2022-07-29T08:06:14;7.50;;;5.55;;
24261;SDS011;12385;51.412;5.540;2022-07-29T08:08:39;11.02;;;5.60;;
24261;SDS011;12385;51.412;5.540;2022-07-29T08:11:06;8.77;;;5.28;;
24261;SDS011;12385;51.412;5.540;2022-07-29T08:13:32;12.80;;;5.35;;
24261;SDS011;12385;51.412;5.540;2022-07-29T08:15:58;8.82;;;5.50;;
24261;SDS011;12385;51.412;5.540;2022-07-29T08:18:27;9.40;;;5.53;;
24261;SDS011;12385;51.412;5.540;2022-07-29T08:20:54;7.80;;;5.40;;
24261;SDS011;12385;51.412;5.540;2022-07-29T08:23:20;9.45;;;5.40;;
24261;SDS011;12385;51.412;5.540;2022-07-29T08:25:47;7.95;;;4.90;;
24261;SDS011;12385;51.412;5.540;2022-07-29T08:28:13;8.43;;;5.05;;
24261;SDS011;12385;51.412;5.540;2022-07-29T08:30:39;11.25;;;5.43;;
24261;SDS011;12385;51.412;5.540;2022-07-29T08:33:05;7.72;;;4.68;;
24261;SDS011;12385;51.412;5.540;2022-07-29T08:35:31;10.02;;;5.13;;
24261;SDS011;12385;51.412;5.540;2022-07-29T08:37:57;11.13;;;4.78;;
24261;SDS011;12385;51.412;5.540;2022-07-29T08:40:23;7.88;;;4.80;;
24261;SDS011;12385;51.412;5.540;2022-07-29T08:42:49;10.00;;;4.85;;
24261;SDS011;12385;51.412;5.540;2022-07-29T08:45:15;10.30;;;4.95;;
24261;SDS011;12385;51.412;5.540;2022-07-29T08:47:40;12.55;;;5.45;;
24261;SDS011;12385;51.412;5.540;2022-07-29T08:50:09;10.20;;;4.97;;
24261;SDS011;12385;51.412;5.540;2022-07-29T08:52:36;13.20;;;4.75;;
24261;SDS011;12385;51.412;5.540;2022-07-29T08:55:07;11.40;;;5.22;;
24261;SDS011;12385;51.412;5.540;2022-07-29T08:57:35;14.55;;;5.03;;
24261;SDS011;12385;51.412;5.540;2022-07-29T09:00:06;6.70;;;4.85;;
24261;SDS011;12385;51.412;5.540;2022-07-29T09:02:35;11.48;;;4.85;;
24261;SDS011;12385;51.412;5.540;2022-07-29T09:05:03;10.30;;;4.97;;
24261;SDS011;12385;51.412;5.540;2022-07-29T09:07:30;10.75;;;4.65;;
24261;SDS011;12385;51.412;5.540;2022-07-29T09:09:55;11.25;;;4.93;;
24261;SDS011;12385;51.412;5.540;2022-07-29T09:12:21;8.98;;;5.10;;
24261;SDS011;12385;51.412;5.540;2022-07-29T09:14:49;11.60;;;5.07;;
24261;SDS011;12385;51.412;5.540;2022-07-29T09:17:15;10.10;;;5.22;;
24261;SDS011;12385;51.412;5.540;2022-07-29T09:19:42;10.55;;;4.50;;
24261;SDS011;12385;51.412;5.540;2022-07-29T09:22:08;11.27;;;4.70;;
24261;SDS011;12385;51.412;5.540;2022-07-29T09:24:41;8.85;;;4.60;;
24261;SDS011;12385;51.412;5.540;2022-07-29T09:27:09;7.45;;;4.88;;
24261;SDS011;12385;51.412;5.540;2022-07-29T09:29:42;8.40;;;4.50;;
24261;SDS011;12385;51.412;5.540;2022-07-29T09:32:09;8.00;;;4.78;;
24261;SDS011;12385;51.412;5.540;2022-07-29T09:34:36;10.00;;;4.45;;
24261;SDS011;12385;51.412;5.540;2022-07-29T09:37:02;9.60;;;4.75;;
24261;SDS011;12385;51.412;5.540;2022-07-29T09:39:33;9.60;;;4.80;;
24261;SDS011;12385;51.412;5.540;2022-07-29T09:42:00;8.13;;;4.68;;
24261;SDS011;12385;51.412;5.540;2022-07-29T09:44:40;10.80;;;4.70;;
24261;SDS011;12385;51.412;5.540;2022-07-29T09:47:07;10.50;;;4.43;;
24261;SDS011;12385;51.412;5.540;2022-07-29T09:49:34;8.27;;;3.90;;
24261;SDS011;12385;51.412;5.540;2022-07-29T09:54:29;6.25;;;3.60;;
24261;SDS011;12385;51.412;5.540;2022-07-29T09:56:59;10.77;;;4.25;;
24261;SDS011;12385;51.412;5.540;2022-07-29T09:59:27;6.60;;;3.10;;
24261;SDS011;12385;51.412;5.540;2022-07-29T10:01:53;8.13;;;3.60;;
24261;SDS011;12385;51.412;5.540;2022-07-29T10:04:18;5.55;;;3.22;;
24261;SDS011;12385;51.412;5.540;2022-07-29T10:07:00;5.22;;;2.78;;
24261;SDS011;12385;51.412;5.540;2022-07-29T10:09:27;8.00;;;3.42;;
24261;SDS011;12385;51.412;5.540;2022-07-29T10:12:07;6.78;;;3.22;;
24261;SDS011;12385;51.412;5.540;2022-07-29T10:14:39;5.43;;;3.22;;
24261;SDS011;12385;51.412;5.540;2022-07-29T10:17:06;6.50;;;2.90;;
24261;SDS011;12385;51.412;5.540;2022-07-29T10:19:33;6.97;;;3.10;;
24261;SDS011;12385;51.412;5.540;2022-07-29T10:22:01;7.50;;;3.25;;
24261;SDS011;12385;51.412;5.540;2022-07-29T10:24:31;11.25;;;3.28;;
24261;SDS011;12385;51.412;5.540;2022-07-29T10:27:00;7.90;;;3.63;;
24261;SDS011;12385;51.412;5.540;2022-07-29T10:29:26;8.98;;;3.85;;
24261;SDS011;12385;51.412;5.540;2022-07-29T10:37:40;5.78;;;3.10;;
24261;SDS011;12385;51.412;5.540;2022-07-29T10:43:30;5.70;;;3.20;;
24261;SDS011;12385;51.412;5.540;2022-07-29T10:46:02;10.55;;;3.60;;
24261;SDS011;12385;51.412;5.540;2022-07-29T10:48:29;7.55;;;3.70;;
24261;SDS011;12385;51.412;5.540;2022-07-29T10:50:59;7.70;;;3.75;;
24261;SDS011;12385;51.412;5.540;2022-07-29T10:53:47;4.88;;;3.10;;
24261;SDS011;12385;51.412;5.540;2022-07-29T10:56:27;7.78;;;3.20;;
24261;SDS011;12385;51.412;5.540;2022-07-29T11:01:44;6.25;;;3.50;;
24261;SDS011;12385;51.412;5.540;2022-07-29T11:04:11;7.65;;;3.67;;
24261;SDS011;12385;51.412;5.540;2022-07-29T11:09:34;8.85;;;3.80;;
24261;SDS011;12385;51.412;5.540;2022-07-29T11:11:59;6.90;;;3.50;;
24261;SDS011;12385;51.412;5.540;2022-07-29T11:17:22;5.38;;;2.95;;
24261;SDS011;12385;51.412;5.540;2022-07-29T11:19:48;13.20;;;3.50;;
24261;SDS011;12385;51.412;5.540;2022-07-29T11:22:30;9.80;;;3.10;;
24261;SDS011;12385;51.412;5.540;2022-07-29T11:25:12;7.05;;;3.25;;
24261;SDS011;12385;51.412;5.540;2022-07-29T11:27:39;6.70;;;3.33;;
24261;SDS011;12385;51.412;5.540;2022-07-29T11:30:05;6.10;;;3.00;;
24261;SDS011;12385;51.412;5.540;2022-07-29T11:32:36;5.93;;;3.25;;
24261;SDS011;12385;51.412;5.540;2022-07-29T11:35:20;10.88;;;3.60;;
24261;SDS011;12385;51.412;5.540;2022-07-29T11:38:23;7.03;;;2.80;;
24261;SDS011;12385;51.412;5.540;2022-07-29T11:43:52;6.53;;;3.00;;
24261;SDS011;12385;51.412;5.540;2022-07-29T11:51:56;7.20;;;2.88;;
24261;SDS011;12385;51.412;5.540;2022-07-29T11:54:33;6.65;;;3.00;;
24261;SDS011;12385;51.412;5.540;2022-07-29T11:56:59;7.03;;;2.83;;
24261;SDS011;12385;51.412;5.540;2022-07-29T11:59:25;6.70;;;3.00;;
24261;SDS011;12385;51.412;5.540;2022-07-29T12:01:52;7.45;;;2.80;;
24261;SDS011;12385;51.412;5.540;2022-07-29T12:04:18;5.65;;;2.70;;
24261;SDS011;12385;51.412;5.540;2022-07-29T12:06:48;6.35;;;3.20;;
24261;SDS011;12385;51.412;5.540;2022-07-29T12:09:18;4.05;;;2.45;;
24261;SDS011;12385;51.412;5.540;2022-07-29T12:11:45;6.30;;;2.63;;
24261;SDS011;12385;51.412;5.540;2022-07-29T12:14:24;4.35;;;2.45;;
24261;SDS011;12385;51.412;5.540;2022-07-29T12:16:50;4.53;;;2.47;;
24261;SDS011;12385;51.412;5.540;2022-07-29T12:19:15;6.90;;;2.53;;
24261;SDS011;12385;51.412;5.540;2022-07-29T12:21:47;5.78;;;2.78;;
24261;SDS011;12385;51.412;5.540;2022-07-29T12:24:15;6.28;;;2.50;;
24261;SDS011;12385;51.412;5.540;2022-07-29T12:26:51;7.30;;;2.50;;
24261;SDS011;12385;51.412;5.540;2022-07-29T12:29:18;6.72;;;2.58;;
24261;SDS011;12385;51.412;5.540;2022-07-29T12:31:44;6.32;;;2.85;;
24261;SDS011;12385;51.412;5.540;2022-07-29T12:34:15;10.27;;;2.90;;
24261;SDS011;12385;51.412;5.540;2022-07-29T12:36:41;11.32;;;3.00;;
24261;SDS011;12385;51.412;5.540;2022-07-29T12:39:08;5.28;;;2.83;;
24261;SDS011;12385;51.412;5.540;2022-07-29T12:41:35;5.75;;;2.90;;
24261;SDS011;12385;51.412;5.540;2022-07-29T12:44:02;9.35;;;2.63;;
24261;SDS011;12385;51.412;5.540;2022-07-29T12:46:28;5.10;;;2.40;;
24261;SDS011;12385;51.412;5.540;2022-07-29T12:48:54;4.30;;;2.50;;
24261;SDS011;12385;51.412;5.540;2022-07-29T12:51:38;13.85;;;2.83;;
24261;SDS011;12385;51.412;5.540;2022-07-29T12:56:38;4.90;;;2.53;;
24261;SDS011;12385;51.412;5.540;2022-07-29T12:59:21;6.35;;;2.45;;
24261;SDS011;12385;51.412;5.540;2022-07-29T13:01:48;7.07;;;2.30;;
24261;SDS011;12385;51.412;5.540;2022-07-29T13:04:24;5.03;;;2.30;;
24261;SDS011;12385;51.412;5.540;2022-07-29T13:07:27;8.80;;;1.88;;
24261;SDS011;12385;51.412;5.540;2022-07-29T13:09:48;8.65;;;2.88;;
24261;SDS011;12385;51.412;5.540;2022-07-29T13:12:14;6.97;;;2.60;;
24261;SDS011;12385;51.412;5.540;2022-07-29T13:14:41;9.15;;;2.38;;
24261;SDS011;12385;51.412;5.540;2022-07-29T13:17:09;5.57;;;2.10;;
24261;SDS011;12385;51.412;5.540;2022-07-29T13:19:40;6.03;;;2.20;;
24261;SDS011;12385;51.412;5.540;2022-07-29T13:22:13;5.15;;;2.60;;
24261;SDS011;12385;51.412;5.540;2022-07-29T13:27:13;6.70;;;2.53;;
24261;SDS011;12385;51.412;5.540;2022-07-29T13:29:40;6.70;;;2.30;;
24261;SDS011;12385;51.412;5.540;2022-07-29T13:32:06;4.13;;;1.70;;
24261;SDS011;12385;51.412;5.540;2022-07-29T13:34:32;7.57;;;1.60;;
24261;SDS011;12385;51.412;5.540;2022-07-29T13:36:58;5.78;;;1.55;;
24261;SDS011;12385;51.412;5.540;2022-07-29T13:39:23;6.78;;;1.95;;
24261;SDS011;12385;51.412;5.540;2022-07-29T13:41:49;4.05;;;1.45;;
24261;SDS011;12385;51.412;5.540;2022-07-29T13:44:14;4.72;;;1.20;;
24261;SDS011;12385;51.412;5.540;2022-07-29T13:46:40;3.20;;;1.20;;
24261;SDS011;12385;51.412;5.540;2022-07-29T13:49:05;4.95;;;1.30;;
24261;SDS011;12385;51.412;5.540;2022-07-29T13:51:31;4.15;;;1.55;;
24261;SDS011;12385;51.412;5.540;2022-07-29T13:53:57;3.83;;;1.42;;
24261;SDS011;12385;51.412;5.540;2022-07-29T13:56:22;6.30;;;1.20;;
24261;SDS011;12385;51.412;5.540;2022-07-29T13:58:48;4.38;;;1.40;;
24261;SDS011;12385;51.412;5.540;2022-07-29T14:01:14;5.30;;;1.27;;
24261;SDS011;12385;51.412;5.540;2022-07-29T14:03:40;6.32;;;1.20;;
24261;SDS011;12385;51.412;5.540;2022-07-29T14:06:08;4.05;;;1.60;;
24261;SDS011;12385;51.412;5.540;2022-07-29T14:08:33;4.45;;;1.27;;
24261;SDS011;12385;51.412;5.540;2022-07-29T14:10:59;4.32;;;1.40;;
24261;SDS011;12385;51.412;5.540;2022-07-29T14:13:24;2.90;;;1.40;;
24261;SDS011;12385;51.412;5.540;2022-07-29T14:15:50;3.15;;;1.20;;
24261;SDS011;12385;51.412;5.540;2022-07-29T14:18:16;5.00;;;1.30;;
24261;SDS011;12385;51.412;5.540;2022-07-29T14:20:42;4.63;;;1.52;;
24261;SDS011;12385;51.412;5.540;2022-07-29T14:23:08;4.63;;;1.70;;
24261;SDS011;12385;51.412;5.540;2022-07-29T14:25:33;4.85;;;1.65;;
24261;SDS011;12385;51.412;5.540;2022-07-29T14:27:59;3.17;;;1.33;;
24261;SDS011;12385;51.412;5.540;2022-07-29T14:30:25;6.47;;;1.50;;
24261;SDS011;12385;51.412;5.540;2022-07-29T14:32:50;2.95;;;1.35;;
24261;SDS011;12385;51.412;5.540;2022-07-29T14:35:16;6.43;;;1.30;;
24261;SDS011;12385;51.412;5.540;2022-07-29T14:37:41;4.70;;;1.40;;
24261;SDS011;12385;51.412;5.540;2022-07-29T14:40:08;8.75;;;1.70;;
24261;SDS011;12385;51.412;5.540;2022-07-29T14:42:34;6.70;;;1.42;;
24261;SDS011;12385;51.412;5.540;2022-07-29T14:45:01;4.10;;;1.48;;
24261;SDS011;12385;51.412;5.540;2022-07-29T14:47:26;5.97;;;1.40;;
24261;SDS011;12385;51.412;5.540;2022-07-29T14:49:52;4.35;;;1.33;;
24261;SDS011;12385;51.412;5.540;2022-07-29T14:52:17;5.68;;;1.63;;
24261;SDS011;12385;51.412;5.540;2022-07-29T14:54:43;4.75;;;1.60;;
24261;SDS011;12385;51.412;5.540;2022-07-29T14:57:08;5.93;;;1.40;;
24261;SDS011;12385;51.412;5.540;2022-07-29T14:59:34;4.63;;;1.52;;
24261;SDS011;12385;51.412;5.540;2022-07-29T15:02:00;5.63;;;1.52;;
24261;SDS011;12385;51.412;5.540;2022-07-29T15:04:27;3.28;;;1.35;;
24261;SDS011;12385;51.412;5.540;2022-07-29T15:06:56;5.63;;;1.52;;
24261;SDS011;12385;51.412;5.540;2022-07-29T15:09:22;6.10;;;1.50;;
24261;SDS011;12385;51.412;5.540;2022-07-29T15:11:48;3.47;;;1.20;;
24261;SDS011;12385;51.412;5.540;2022-07-29T15:14:14;6.32;;;1.50;;
24261;SDS011;12385;51.412;5.540;2022-07-29T15:16:39;4.03;;;1.20;;
24261;SDS011;12385;51.412;5.540;2022-07-29T15:19:07;5.65;;;1.67;;
24261;SDS011;12385;51.412;5.540;2022-07-29T15:21:33;5.03;;;1.30;;
24261;SDS011;12385;51.412;5.540;2022-07-29T15:23:58;4.30;;;1.30;;
24261;SDS011;12385;51.412;5.540;2022-07-29T15:26:24;5.68;;;1.27;;
24261;SDS011;12385;51.412;5.540;2022-07-29T15:28:50;8.68;;;1.50;;
24261;SDS011;12385;51.412;5.540;2022-07-29T15:31:16;6.88;;;1.40;;
24261;SDS011;12385;51.412;5.540;2022-07-29T15:33:43;7.00;;;1.20;;
24261;SDS011;12385;51.412;5.540;2022-07-29T15:36:09;2.85;;;1.13;;
24261;SDS011;12385;51.412;5.540;2022-07-29T15:38:37;5.93;;;1.00;;
24261;SDS011;12385;51.412;5.540;2022-07-29T15:41:02;5.82;;;1.17;;